createdAt,value
2018-12-26T00:00:03.667Z,27.94
2018-12-26T00:01:03.638Z,28.14
2018-12-26T00:02:03.640Z,28.23
2018-12-26T00:03:03.492Z,27.75
2018-12-26T00:04:03.446Z,27.75
2018-12-26T00:05:03.399Z,27.75
2018-12-26T00:06:03.351Z,27.66
2018-12-26T00:07:03.305Z,27.75
2018-12-26T00:08:03.258Z,27.66
2018-12-26T00:09:03.212Z,27.75
2018-12-26T00:10:03.165Z,27.94
2018-12-26T00:11:03.117Z,27.75
2018-12-26T00:12:03.071Z,27.75
2018-12-26T00:13:03.025Z,27.75
2018-12-26T00:14:02.978Z,27.66
2018-12-26T00:15:02.930Z,27.85
2018-12-26T00:16:02.883Z,27.85
2018-12-26T00:17:02.838Z,27.75
2018-12-26T00:18:02.791Z,27.66
2018-12-26T00:19:02.744Z,27.75
2018-12-26T00:20:02.782Z,28.23
2018-12-26T00:21:02.650Z,27.66
2018-12-26T00:22:02.604Z,27.75
2018-12-26T00:23:02.656Z,27.75
2018-12-26T00:24:02.726Z,27.75
2018-12-26T00:25:02.465Z,27.75
2018-12-26T00:26:02.418Z,27.75
2018-12-26T00:27:02.376Z,27.75
2018-12-26T00:28:02.643Z,28.23
2018-12-26T00:29:02.278Z,27.75
2018-12-26T00:30:02.229Z,27.75
2018-12-26T00:31:02.181Z,27.85
2018-12-26T00:32:02.135Z,27.66
2018-12-26T00:33:02.089Z,27.75
2018-12-26T00:34:02.042Z,28.23
2018-12-26T00:35:01.994Z,27.75
2018-12-26T00:36:01.948Z,28.23
2018-12-26T00:37:01.901Z,28.23
2018-12-26T00:38:01.855Z,28.23
2018-12-26T00:39:01.807Z,28.23
2018-12-26T00:40:01.761Z,28.23
2018-12-26T00:41:01.714Z,27.75
2018-12-26T00:42:01.668Z,27.94
2018-12-26T00:43:01.670Z,28.14
2018-12-26T00:44:01.625Z,28.14
2018-12-26T00:45:01.589Z,28.14
2018-12-26T00:46:01.479Z,28.14
2018-12-26T00:47:01.433Z,28.14
2018-12-26T00:48:01.386Z,28.33
2018-12-26T00:49:01.340Z,28.04
2018-12-26T00:50:01.296Z,28.23
2018-12-26T00:51:01.245Z,28.14
2018-12-26T00:52:01.199Z,27.94
2018-12-26T00:53:01.152Z,28.33
2018-12-26T00:54:01.108Z,28.04
2018-12-26T00:55:01.058Z,28.04
2018-12-26T00:56:01.012Z,28.14
2018-12-26T00:57:00.965Z,28.04
2018-12-26T00:58:00.920Z,28.04
2018-12-26T00:59:00.873Z,28.14
2018-12-26T01:00:00.825Z,28.14
2018-12-26T01:01:00.778Z,28.14
2018-12-26T01:02:00.732Z,28.04
2018-12-26T01:03:00.686Z,27.94
2018-12-26T01:04:00.666Z,28.14
2018-12-26T01:05:00.591Z,28.23
2018-12-26T01:06:00.546Z,27.94
2018-12-26T01:07:00.500Z,28.04
2018-12-26T01:08:00.450Z,28.23
2018-12-26T01:09:00.403Z,28.14
2018-12-26T01:10:00.360Z,28.33
2018-12-26T01:11:00.310Z,28.23
2018-12-26T01:12:00.263Z,28.14
2018-12-26T01:13:00.219Z,28.04
2018-12-26T01:14:00.170Z,28.23
2018-12-26T01:15:00.160Z,28.23
2018-12-26T01:16:00.075Z,28.23
2018-12-26T01:17:00.029Z,28.14
2018-12-26T01:17:59.985Z,28.14
2018-12-26T01:18:59.937Z,28.23
2018-12-26T01:19:59.894Z,28.04
2018-12-26T01:20:59.842Z,28.04
2018-12-26T01:21:59.796Z,28.04
2018-12-26T01:22:59.748Z,28.14
2018-12-26T01:23:59.702Z,27.94
2018-12-26T01:24:59.655Z,28.23
2018-12-26T01:25:59.609Z,27.75
2018-12-26T01:26:59.611Z,27.75
2018-12-26T01:27:59.514Z,27.75
2018-12-26T01:28:59.468Z,27.66
2018-12-26T01:29:59.422Z,27.94
2018-12-26T01:30:59.374Z,27.85
2018-12-26T01:31:59.327Z,27.75
2018-12-26T01:32:59.281Z,27.94
2018-12-26T01:33:59.237Z,27.94
2018-12-26T01:34:59.187Z,28.14
2018-12-26T01:35:59.141Z,28.14
2018-12-26T01:36:59.094Z,28.14
2018-12-26T01:37:59.047Z,28.23
2018-12-26T01:38:59.001Z,28.33
2018-12-26T01:39:58.953Z,28.23
2018-12-26T01:40:58.907Z,28.04
2018-12-26T01:41:58.867Z,28.23
2018-12-26T01:42:58.813Z,28.14
2018-12-26T01:43:58.766Z,28.14
2018-12-26T01:44:58.719Z,28.14
2018-12-26T01:45:58.673Z,28.14
2018-12-26T01:46:58.677Z,28.14
2018-12-26T01:47:58.581Z,27.85
2018-12-26T01:48:58.632Z,28.33
2018-12-26T01:49:58.486Z,27.85
2018-12-26T01:50:58.440Z,28.23
2018-12-26T01:51:58.393Z,28.04
2018-12-26T01:52:58.345Z,28.23
2018-12-26T01:53:58.300Z,28.23
2018-12-26T01:54:58.251Z,28.14
2018-12-26T01:55:58.521Z,28.04
2018-12-26T01:56:58.159Z,28.23
2018-12-26T01:57:58.110Z,28.23
2018-12-26T01:58:58.064Z,27.85
2018-12-26T01:59:58.019Z,28.33
2018-12-26T02:00:57.971Z,28.14
2018-12-26T02:01:57.924Z,28.23
2018-12-26T02:02:57.877Z,28.04
2018-12-26T02:03:57.830Z,27.94
2018-12-26T02:04:57.784Z,28.14
2018-12-26T02:05:57.737Z,28.23
2018-12-26T02:06:57.689Z,28.14
2018-12-26T02:07:57.643Z,28.04
2018-12-26T02:08:57.646Z,28.33
2018-12-26T02:09:57.601Z,28.14
2018-12-26T02:10:57.502Z,28.33
2018-12-26T02:11:57.456Z,28.04
2018-12-26T02:12:57.409Z,28.04
2018-12-26T02:13:57.363Z,28.23
2018-12-26T02:14:57.315Z,28.04
2018-12-26T02:15:57.268Z,28.23
2018-12-26T02:16:57.220Z,28.23
2018-12-26T02:17:57.175Z,27.85
2018-12-26T02:18:57.128Z,27.94
2018-12-26T02:19:57.080Z,28.04
2018-12-26T02:20:57.041Z,28.14
2018-12-26T02:21:56.988Z,28.23
2018-12-26T02:22:56.940Z,28.14
2018-12-26T02:23:56.894Z,28.23
2018-12-26T02:24:56.846Z,27.94
2018-12-26T02:25:56.800Z,28.04
2018-12-26T02:26:56.753Z,28.33
2018-12-26T02:27:56.706Z,28.04
2018-12-26T02:28:56.661Z,28.23
2018-12-26T02:29:56.617Z,28.23
2018-12-26T02:30:56.567Z,28.33
2018-12-26T02:31:56.519Z,28.14
2018-12-26T02:32:56.473Z,28.04
2018-12-26T02:33:56.426Z,27.94
2018-12-26T02:34:56.380Z,28.14
2018-12-26T02:35:56.333Z,28.14
2018-12-26T02:36:56.286Z,27.94
2018-12-26T02:37:56.243Z,28.23
2018-12-26T02:38:56.191Z,27.75
2018-12-26T02:39:56.151Z,27.85
2018-12-26T02:40:56.103Z,28.14
2018-12-26T02:41:56.055Z,27.75
2018-12-26T02:42:56.004Z,27.85
2018-12-26T02:43:55.958Z,27.66
2018-12-26T02:44:55.911Z,27.75
2018-12-26T02:45:55.865Z,27.75
2018-12-26T02:46:55.816Z,28.04
2018-12-26T02:47:55.770Z,28.04
2018-12-26T02:48:55.724Z,28.14
2018-12-26T02:49:55.678Z,28.33
2018-12-26T02:50:55.630Z,28.23
2018-12-26T02:51:55.633Z,28.14
2018-12-26T02:52:55.540Z,27.94
2018-12-26T02:53:55.491Z,27.85
2018-12-26T02:54:55.443Z,27.75
2018-12-26T02:55:55.396Z,28.23
2018-12-26T02:56:55.350Z,27.85
2018-12-26T02:57:55.304Z,27.75
2018-12-26T02:58:55.255Z,27.75
2018-12-26T02:59:55.209Z,28.23
2018-12-26T03:00:55.161Z,27.94
2018-12-26T03:01:55.150Z,27.75
2018-12-26T03:02:55.069Z,27.75
2018-12-26T03:03:55.022Z,27.75
2018-12-26T03:04:54.975Z,27.75
2018-12-26T03:05:55.249Z,27.85
2018-12-26T03:06:55.198Z,27.85
2018-12-26T03:07:54.834Z,28.33
2018-12-26T03:08:54.787Z,28.14
2018-12-26T03:09:54.741Z,28.14
2018-12-26T03:10:54.700Z,28.14
2018-12-26T03:11:54.661Z,28.14
2018-12-26T03:12:54.650Z,28.23
2018-12-26T03:13:54.607Z,28.33
2018-12-26T03:14:54.507Z,28.14
2018-12-26T03:15:54.460Z,28.33
2018-12-26T03:16:54.417Z,28.23
2018-12-26T03:17:54.367Z,28.14
2018-12-26T03:18:54.319Z,27.94
2018-12-26T03:19:54.273Z,28.23
2018-12-26T03:20:54.226Z,28.04
2018-12-26T03:21:54.182Z,28.14
2018-12-26T03:22:54.238Z,28.04
2018-12-26T03:23:54.086Z,28.33
2018-12-26T03:24:54.040Z,28.14
2018-12-26T03:25:53.992Z,27.94
2018-12-26T03:26:56.422Z,27.94
2018-12-26T03:27:53.898Z,27.94
2018-12-26T03:28:53.852Z,28.14
2018-12-26T03:29:53.807Z,28.14
2018-12-26T03:30:53.761Z,28.14
2018-12-26T03:31:53.712Z,28.14
2018-12-26T03:32:53.669Z,28.04
2018-12-26T03:33:53.618Z,28.04
2018-12-26T03:34:53.571Z,28.04
2018-12-26T03:35:53.535Z,28.04
2018-12-26T03:36:53.478Z,28.14
2018-12-26T03:37:53.432Z,28.23
2018-12-26T03:38:53.383Z,28.14
2018-12-26T03:39:53.337Z,28.23
2018-12-26T03:40:53.290Z,28.23
2018-12-26T03:41:53.245Z,28.23
2018-12-26T03:42:53.196Z,28.23
2018-12-26T03:43:53.150Z,28.04
2018-12-26T03:44:53.104Z,28.14
2018-12-26T03:45:53.060Z,28.42
2018-12-26T03:46:53.009Z,28.04
2018-12-26T03:47:52.961Z,28.14
2018-12-26T03:48:52.917Z,28.04
2018-12-26T03:49:52.869Z,28.23
2018-12-26T03:50:52.827Z,28.04
2018-12-26T03:51:52.776Z,27.94
2018-12-26T03:52:52.728Z,28.14
2018-12-26T03:53:52.681Z,28.14
2018-12-26T03:54:52.635Z,28.23
2018-12-26T03:55:52.589Z,28.14
2018-12-26T03:56:52.595Z,28.23
2018-12-26T03:57:52.591Z,28.04
2018-12-26T03:58:52.448Z,28.33
2018-12-26T03:59:52.402Z,28.14
2018-12-26T04:00:52.358Z,28.04
2018-12-26T04:01:52.308Z,28.23
2018-12-26T04:02:52.261Z,28.33
2018-12-26T04:03:52.213Z,28.14
2018-12-26T04:04:52.168Z,28.23
2018-12-26T04:05:52.121Z,28.23
2018-12-26T04:06:52.074Z,28.23
2018-12-26T04:07:52.028Z,28.23
2018-12-26T04:08:51.979Z,28.42
2018-12-26T04:09:51.936Z,28.33
2018-12-26T04:10:51.887Z,28.23
2018-12-26T04:11:51.840Z,28.33
2018-12-26T04:12:51.793Z,28.14
2018-12-26T04:13:51.747Z,28.23
2018-12-26T04:14:51.701Z,28.14
2018-12-26T04:15:51.655Z,28.33
2018-12-26T04:16:51.607Z,28.23
2018-12-26T04:17:51.609Z,28.04
2018-12-26T04:18:51.514Z,28.33
2018-12-26T04:19:51.465Z,28.14
2018-12-26T04:20:51.419Z,28.14
2018-12-26T04:21:51.372Z,28.23
2018-12-26T04:22:51.325Z,28.23
2018-12-26T04:23:51.280Z,28.23
2018-12-26T04:24:51.232Z,27.94
2018-12-26T04:25:51.186Z,28.23
2018-12-26T04:26:51.138Z,28.14
2018-12-26T04:27:51.091Z,28.23
2018-12-26T04:28:51.044Z,28.14
2018-12-26T04:29:50.998Z,28.14
2018-12-26T04:30:50.950Z,28.04
2018-12-26T04:31:50.905Z,28.23
2018-12-26T04:32:50.857Z,28.23
2018-12-26T04:33:50.811Z,28.14
2018-12-26T04:34:50.764Z,28.04
2018-12-26T04:35:50.717Z,28.33
2018-12-26T04:36:50.670Z,28.33
2018-12-26T04:37:50.624Z,28.23
2018-12-26T04:38:50.578Z,28.14
2018-12-26T04:39:50.531Z,28.23
2018-12-26T04:40:50.484Z,28.23
2018-12-26T04:41:50.437Z,28.23
2018-12-26T04:42:50.389Z,28.33
2018-12-26T04:43:51.393Z,28.23
2018-12-26T04:44:50.300Z,28.23
2018-12-26T04:45:50.251Z,28.14
2018-12-26T04:46:50.203Z,28.04
2018-12-26T04:47:50.156Z,28.04
2018-12-26T04:48:50.108Z,28.14
2018-12-26T04:49:50.062Z,28.33
2018-12-26T04:50:50.017Z,28.14
2018-12-26T04:51:49.969Z,28.14
2018-12-26T04:52:49.923Z,28.14
2018-12-26T04:53:49.876Z,28.04
2018-12-26T04:54:49.830Z,28.14
2018-12-26T04:55:49.781Z,28.04
2018-12-26T04:56:49.735Z,28.14
2018-12-26T04:57:49.688Z,28.14
2018-12-26T04:58:49.642Z,28.14
2018-12-26T04:59:49.603Z,28.14
2018-12-26T05:00:49.599Z,28.14
2018-12-26T05:01:49.501Z,28.04
2018-12-26T05:02:49.454Z,28.04
2018-12-26T05:03:49.408Z,28.04
2018-12-26T05:04:49.360Z,28.14
2018-12-26T05:05:49.315Z,28.52
2018-12-26T05:06:49.266Z,28.23
2018-12-26T05:07:49.220Z,28.23
2018-12-26T05:08:49.177Z,28.42
2018-12-26T05:09:49.125Z,28.62
2018-12-26T05:10:49.079Z,28.04
2018-12-26T05:11:49.034Z,28.23
2018-12-26T05:12:48.992Z,28.33
2018-12-26T05:13:48.940Z,28.23
2018-12-26T05:14:48.898Z,28.42
2018-12-26T05:15:48.845Z,28.23
2018-12-26T05:16:48.798Z,28.42
2018-12-26T05:17:48.872Z,28.23
2018-12-26T05:18:48.709Z,28.33
2018-12-26T05:19:48.659Z,28.33
2018-12-26T05:20:48.612Z,28.14
2018-12-26T05:21:48.614Z,28.33
2018-12-26T05:22:48.517Z,28.14
2018-12-26T05:23:48.471Z,28.33
2018-12-26T05:24:48.424Z,28.33
2018-12-26T05:25:48.378Z,28.33
2018-12-26T05:26:48.329Z,28.33
2018-12-26T05:27:48.284Z,28.33
2018-12-26T05:28:48.236Z,28.33
2018-12-26T05:29:48.205Z,28.33
2018-12-26T05:30:48.146Z,28.42
2018-12-26T05:31:48.096Z,28.23
2018-12-26T05:32:48.050Z,28.33
2018-12-26T05:33:48.007Z,28.23
2018-12-26T05:34:47.955Z,28.14
2018-12-26T05:35:47.909Z,28.33
2018-12-26T05:36:47.862Z,28.23
2018-12-26T05:37:47.816Z,28.23
2018-12-26T05:38:47.769Z,28.14
2018-12-26T05:39:47.722Z,28.23
2018-12-26T05:40:47.675Z,28.23
2018-12-26T05:41:47.628Z,28.23
2018-12-26T05:42:47.681Z,28.33
2018-12-26T05:43:47.537Z,28.14
2018-12-26T05:44:47.488Z,28.23
2018-12-26T05:45:47.440Z,28.33
2018-12-26T05:46:47.394Z,28.42
2018-12-26T05:47:47.349Z,28.33
2018-12-26T05:48:47.301Z,28.33
2018-12-26T05:49:47.254Z,28.42
2018-12-26T05:50:47.207Z,28.33
2018-12-26T05:51:47.159Z,28.52
2018-12-26T05:52:47.114Z,28.42
2018-12-26T05:53:47.181Z,28.42
2018-12-26T05:54:47.020Z,28.42
2018-12-26T05:55:46.972Z,28.52
2018-12-26T05:56:46.926Z,28.52
2018-12-26T05:57:46.880Z,28.42
2018-12-26T05:58:46.834Z,28.42
2018-12-26T05:59:46.786Z,28.62
2018-12-26T06:00:46.739Z,28.52
2018-12-26T06:01:46.691Z,28.52
2018-12-26T06:02:46.645Z,28.52
2018-12-26T06:03:46.599Z,28.42
2018-12-26T06:04:46.552Z,28.52
2018-12-26T06:05:46.505Z,28.42
2018-12-26T06:06:46.460Z,28.52
2018-12-26T06:07:46.412Z,28.42
2018-12-26T06:08:46.365Z,28.42
2018-12-26T06:09:46.318Z,28.72
2018-12-26T06:10:46.272Z,28.33
2018-12-26T06:11:46.227Z,28.42
2018-12-26T06:12:46.178Z,28.52
2018-12-26T06:13:46.131Z,28.72
2018-12-26T06:14:46.083Z,28.52
2018-12-26T06:15:46.037Z,28.52
2018-12-26T06:16:45.990Z,28.72
2018-12-26T06:17:45.943Z,28.33
2018-12-26T06:18:45.897Z,28.42
2018-12-26T06:19:45.851Z,28.72
2018-12-26T06:20:45.802Z,28.42
2018-12-26T06:21:45.756Z,28.52
2018-12-26T06:22:45.709Z,28.62
2018-12-26T06:23:45.662Z,28.42
2018-12-26T06:24:45.615Z,28.52
2018-12-26T06:25:45.569Z,28.62
2018-12-26T06:26:45.521Z,28.52
2018-12-26T06:27:51.453Z,28.62
2018-12-26T06:28:45.429Z,28.62
2018-12-26T06:29:45.381Z,28.72
2018-12-26T06:30:45.334Z,28.72
2018-12-26T06:31:45.287Z,28.72
2018-12-26T06:32:45.241Z,28.72
2018-12-26T06:33:45.194Z,28.72
2018-12-26T06:34:45.146Z,28.72
2018-12-26T06:35:45.100Z,28.62
2018-12-26T06:36:45.053Z,28.62
2018-12-26T06:37:45.007Z,28.62
2018-12-26T06:38:44.959Z,28.62
2018-12-26T06:39:44.913Z,28.62
2018-12-26T06:40:44.866Z,28.72
2018-12-26T06:41:44.820Z,28.81
2018-12-26T06:42:44.774Z,28.81
2018-12-26T06:43:44.725Z,28.81
2018-12-26T06:44:44.679Z,28.72
2018-12-26T06:45:44.640Z,28.62
2018-12-26T06:46:44.690Z,28.62
2018-12-26T06:47:44.538Z,28.52
2018-12-26T06:48:44.491Z,28.81
2018-12-26T06:49:45.425Z,28.72
2018-12-26T06:50:44.397Z,28.62
2018-12-26T06:51:44.353Z,28.72
2018-12-26T06:52:44.305Z,28.72
2018-12-26T06:53:44.257Z,28.62
2018-12-26T06:54:44.210Z,28.62
2018-12-26T06:55:44.169Z,28.72
2018-12-26T06:56:44.117Z,28.81
2018-12-26T06:57:44.070Z,28.62
2018-12-26T06:58:44.022Z,28.72
2018-12-26T06:59:43.976Z,28.33
2018-12-26T07:00:43.931Z,28.72
2018-12-26T07:01:44.200Z,28.91
2018-12-26T07:02:43.835Z,29.00
2018-12-26T07:03:43.789Z,28.91
2018-12-26T07:04:43.795Z,28.91
2018-12-26T07:05:43.696Z,28.81
2018-12-26T07:06:43.698Z,28.52
2018-12-26T07:07:43.710Z,28.52
2018-12-26T07:08:43.707Z,28.81
2018-12-26T07:09:43.508Z,28.62
2018-12-26T07:10:43.461Z,28.72
2018-12-26T07:11:43.420Z,29.00
2018-12-26T07:12:43.368Z,28.62
2018-12-26T07:13:43.322Z,28.72
2018-12-26T07:14:43.274Z,28.72
2018-12-26T07:15:43.226Z,29.10
2018-12-26T07:16:43.181Z,28.72
2018-12-26T07:17:43.134Z,28.62
2018-12-26T07:18:43.094Z,28.62
2018-12-26T07:19:43.040Z,28.72
2018-12-26T07:20:42.993Z,28.72
2018-12-26T07:21:42.949Z,28.72
2018-12-26T07:22:42.899Z,28.62
2018-12-26T07:23:42.852Z,28.62
2018-12-26T07:24:42.806Z,28.72
2018-12-26T07:25:42.759Z,28.62
2018-12-26T07:26:42.862Z,28.62
2018-12-26T07:27:42.765Z,28.72
2018-12-26T07:28:42.722Z,28.62
2018-12-26T07:29:42.721Z,28.72
2018-12-26T07:30:42.676Z,28.72
2018-12-26T07:31:42.478Z,28.72
2018-12-26T07:32:42.432Z,28.72
2018-12-26T07:33:42.385Z,28.72
2018-12-26T07:34:42.658Z,28.81
2018-12-26T07:35:42.290Z,28.72
2018-12-26T07:36:42.244Z,28.72
2018-12-26T07:37:42.197Z,28.62
2018-12-26T07:38:42.250Z,28.62
2018-12-26T07:39:42.103Z,28.81
2018-12-26T07:40:42.057Z,28.72
2018-12-26T07:41:42.010Z,28.72
2018-12-26T07:42:41.964Z,28.72
2018-12-26T07:43:41.916Z,28.72
2018-12-26T07:44:41.869Z,28.62
2018-12-26T07:45:41.823Z,28.72
2018-12-26T07:46:41.775Z,28.72
2018-12-26T07:47:41.731Z,28.72
2018-12-26T07:48:41.682Z,28.81
2018-12-26T07:49:41.636Z,28.72
2018-12-26T07:50:41.588Z,28.72
2018-12-26T07:51:41.591Z,28.72
2018-12-26T07:52:41.495Z,28.72
2018-12-26T07:53:41.447Z,28.72
2018-12-26T07:54:41.401Z,28.72
2018-12-26T07:55:41.354Z,28.52
2018-12-26T07:56:41.308Z,28.52
2018-12-26T07:57:41.262Z,28.62
2018-12-26T07:58:41.214Z,28.72
2018-12-26T07:59:41.167Z,28.81
2018-12-26T08:00:41.122Z,29.00
2018-12-26T08:01:41.074Z,28.81
2018-12-26T08:02:41.028Z,28.91
2018-12-26T08:03:40.979Z,28.72
2018-12-26T08:04:40.934Z,28.81
2018-12-26T08:05:40.890Z,28.72
2018-12-26T08:06:40.844Z,28.72
2018-12-26T08:07:40.793Z,28.81
2018-12-26T08:08:40.747Z,28.72
2018-12-26T08:09:40.700Z,28.72
2018-12-26T08:10:40.656Z,28.72
2018-12-26T08:11:40.604Z,28.72
2018-12-26T08:12:40.609Z,28.72
2018-12-26T08:13:40.513Z,28.72
2018-12-26T08:14:40.467Z,28.72
2018-12-26T08:15:40.419Z,28.81
2018-12-26T08:16:40.372Z,28.81
2018-12-26T08:17:40.324Z,28.62
2018-12-26T08:18:40.277Z,28.72
2018-12-26T08:19:40.231Z,28.81
2018-12-26T08:20:40.184Z,28.81
2018-12-26T08:21:40.138Z,28.81
2018-12-26T08:22:40.090Z,28.62
2018-12-26T08:23:40.044Z,28.81
2018-12-26T08:24:39.997Z,28.72
2018-12-26T08:25:39.951Z,28.72
2018-12-26T08:26:39.903Z,28.52
2018-12-26T08:27:39.907Z,28.62
2018-12-26T08:28:39.811Z,28.62
2018-12-26T08:29:39.765Z,28.52
2018-12-26T08:30:39.720Z,28.52
2018-12-26T08:31:39.670Z,28.72
2018-12-26T08:32:39.625Z,28.62
2018-12-26T08:33:39.577Z,28.62
2018-12-26T08:34:39.529Z,28.52
2018-12-26T08:35:39.484Z,28.62
2018-12-26T08:36:39.436Z,28.52
2018-12-26T08:37:39.389Z,28.62
2018-12-26T08:38:39.343Z,28.52
2018-12-26T08:39:39.296Z,28.62
2018-12-26T08:40:39.250Z,28.62
2018-12-26T08:41:39.202Z,28.62
2018-12-26T08:42:39.204Z,29.29
2018-12-26T08:43:39.108Z,29.10
2018-12-26T08:44:39.062Z,29.10
2018-12-26T08:45:39.016Z,29.20
2018-12-26T08:46:38.968Z,28.91
2018-12-26T08:47:38.921Z,28.91
2018-12-26T08:48:38.874Z,29.00
2018-12-26T08:49:38.830Z,29.00
2018-12-26T08:50:38.781Z,29.10
2018-12-26T08:51:38.733Z,29.10
2018-12-26T08:52:38.687Z,29.00
2018-12-26T08:53:38.641Z,29.00
2018-12-26T08:54:38.594Z,28.91
2018-12-26T08:55:38.602Z,28.91
2018-12-26T08:56:38.505Z,29.00
2018-12-26T08:57:38.454Z,28.81
2018-12-26T08:58:38.406Z,28.81
2018-12-26T08:59:38.360Z,29.00
2018-12-26T09:00:38.313Z,29.10
2018-12-26T09:01:38.267Z,29.00
2018-12-26T09:02:38.219Z,29.00
2018-12-26T09:03:38.177Z,29.00
2018-12-26T09:04:38.126Z,28.81
2018-12-26T09:05:38.082Z,29.00
2018-12-26T09:06:38.032Z,29.00
2018-12-26T09:07:37.988Z,28.91
2018-12-26T09:08:37.939Z,28.91
2018-12-26T09:09:37.895Z,28.91
2018-12-26T09:10:37.845Z,29.00
2018-12-26T09:11:37.799Z,28.81
2018-12-26T09:12:37.752Z,29.10
2018-12-26T09:13:37.705Z,29.10
2018-12-26T09:14:37.658Z,29.10
2018-12-26T09:15:37.662Z,29.00
2018-12-26T09:16:37.565Z,28.81
2018-12-26T09:17:37.517Z,28.91
2018-12-26T09:18:37.471Z,28.91
2018-12-26T09:19:37.425Z,28.91
2018-12-26T09:20:37.378Z,28.81
2018-12-26T09:21:37.330Z,28.91
2018-12-26T09:22:37.284Z,28.91
2018-12-26T09:23:37.237Z,28.81
2018-12-26T09:24:37.189Z,28.81
2018-12-26T09:25:37.144Z,28.91
2018-12-26T09:26:37.096Z,29.29
2018-12-26T09:27:37.054Z,28.81
2018-12-26T09:28:43.740Z,29.10
2018-12-26T09:29:36.957Z,29.20
2018-12-26T09:30:36.914Z,29.39
2018-12-26T09:31:36.863Z,29.10
2018-12-26T09:32:36.816Z,28.91
2018-12-26T09:33:36.770Z,29.29
2018-12-26T09:34:36.722Z,29.10
2018-12-26T09:35:36.675Z,29.39
2018-12-26T09:36:36.631Z,29.20
2018-12-26T09:37:36.583Z,29.29
2018-12-26T09:38:36.586Z,29.29
2018-12-26T09:39:36.489Z,28.81
2018-12-26T09:40:36.445Z,29.29
2018-12-26T09:41:36.395Z,29.29
2018-12-26T09:42:36.348Z,29.29
2018-12-26T09:43:36.301Z,29.39
2018-12-26T09:44:36.255Z,29.20
2018-12-26T09:45:36.209Z,29.39
2018-12-26T09:46:36.161Z,29.10
2018-12-26T09:47:36.115Z,29.20
2018-12-26T09:48:36.068Z,29.10
2018-12-26T09:49:36.022Z,28.91
2018-12-26T09:50:35.974Z,29.20
2018-12-26T09:51:35.936Z,29.39
2018-12-26T09:52:35.881Z,29.10
2018-12-26T09:53:35.835Z,29.29
2018-12-26T09:54:35.787Z,29.39
2018-12-26T09:55:35.741Z,29.20
2018-12-26T09:56:35.694Z,29.00
2018-12-26T09:57:35.684Z,28.91
2018-12-26T09:58:35.601Z,28.91
2018-12-26T09:59:35.554Z,28.81
2018-12-26T10:00:35.508Z,28.81
2018-12-26T10:01:35.461Z,28.91
2018-12-26T10:02:35.414Z,29.10
2018-12-26T10:03:35.367Z,28.81
2018-12-26T10:04:35.320Z,28.72
2018-12-26T10:05:35.275Z,29.20
2018-12-26T10:06:35.226Z,28.91
2018-12-26T10:07:37.039Z,28.91
2018-12-26T10:08:35.134Z,29.10
2018-12-26T10:09:35.087Z,29.10
2018-12-26T10:10:35.040Z,29.39
2018-12-26T10:11:34.993Z,29.39
2018-12-26T10:12:34.947Z,29.20
2018-12-26T10:13:34.902Z,29.20
2018-12-26T10:14:34.853Z,29.29
2018-12-26T10:15:34.805Z,29.29
2018-12-26T10:16:34.760Z,29.39
2018-12-26T10:17:34.713Z,29.49
2018-12-26T10:18:34.665Z,29.39
2018-12-26T10:19:34.623Z,29.49
2018-12-26T10:20:34.572Z,29.39
2018-12-26T10:21:34.530Z,29.49
2018-12-26T10:22:34.479Z,29.58
2018-12-26T10:23:34.434Z,29.39
2018-12-26T10:24:34.389Z,29.58
2018-12-26T10:25:34.339Z,29.58
2018-12-26T10:26:34.290Z,29.58
2018-12-26T10:27:34.245Z,29.58
2018-12-26T10:28:34.198Z,29.68
2018-12-26T10:29:34.153Z,29.58
2018-12-26T10:30:34.105Z,29.49
2018-12-26T10:31:34.059Z,29.77
2018-12-26T10:32:34.013Z,29.77
2018-12-26T10:33:33.964Z,29.87
2018-12-26T10:34:33.918Z,29.77
2018-12-26T10:35:33.872Z,29.87
2018-12-26T10:36:33.827Z,29.87
2018-12-26T10:37:33.781Z,29.87
2018-12-26T10:38:33.734Z,29.68
2018-12-26T10:39:33.686Z,29.77
2018-12-26T10:40:33.638Z,29.87
2018-12-26T10:41:33.592Z,29.49
2018-12-26T10:42:33.594Z,29.97
2018-12-26T10:43:33.498Z,29.97
2018-12-26T10:44:33.451Z,29.68
2018-12-26T10:45:33.405Z,29.87
2018-12-26T10:46:33.357Z,29.77
2018-12-26T10:47:33.312Z,29.68
2018-12-26T10:48:33.267Z,29.68
2018-12-26T10:49:33.218Z,29.77
2018-12-26T10:50:33.211Z,29.68
2018-12-26T10:51:33.124Z,29.87
2018-12-26T10:52:33.077Z,29.87
2018-12-26T10:53:33.031Z,29.77
2018-12-26T10:54:32.983Z,29.68
2018-12-26T10:55:32.937Z,29.68
2018-12-26T10:56:32.889Z,29.58
2018-12-26T10:57:32.847Z,29.77
2018-12-26T10:58:32.796Z,29.49
2018-12-26T10:59:32.749Z,29.49
2018-12-26T11:00:32.703Z,29.77
2018-12-26T11:01:32.657Z,29.87
2018-12-26T11:02:32.659Z,29.58
2018-12-26T11:03:32.563Z,29.49
2018-12-26T11:04:32.569Z,29.77
2018-12-26T11:05:32.475Z,29.87
2018-12-26T11:06:32.422Z,29.87
2018-12-26T11:07:32.376Z,29.77
2018-12-26T11:08:32.329Z,29.58
2018-12-26T11:09:32.283Z,29.49
2018-12-26T11:10:32.235Z,29.87
2018-12-26T11:11:32.187Z,30.16
2018-12-26T11:12:32.142Z,29.49
2018-12-26T11:13:32.096Z,29.87
2018-12-26T11:14:32.055Z,29.87
2018-12-26T11:15:32.004Z,29.68
2018-12-26T11:16:31.956Z,29.87
2018-12-26T11:17:31.909Z,29.77
2018-12-26T11:18:31.861Z,29.77
2018-12-26T11:19:31.815Z,29.68
2018-12-26T11:20:31.770Z,29.68
2018-12-26T11:21:31.723Z,29.97
2018-12-26T11:22:31.675Z,29.58
2018-12-26T11:23:31.628Z,29.77
2018-12-26T11:24:31.582Z,29.77
2018-12-26T11:25:31.547Z,29.97
2018-12-26T11:26:31.489Z,29.68
2018-12-26T11:27:31.442Z,29.97
2018-12-26T11:28:31.395Z,29.87
2018-12-26T11:29:31.349Z,29.97
2018-12-26T11:30:31.303Z,30.07
2018-12-26T11:31:31.255Z,30.07
2018-12-26T11:32:31.208Z,30.07
2018-12-26T11:33:31.161Z,29.68
2018-12-26T11:34:31.114Z,29.97
2018-12-26T11:35:31.068Z,29.97
2018-12-26T11:36:31.022Z,29.97
2018-12-26T11:37:30.974Z,30.07
2018-12-26T11:38:30.927Z,29.97
2018-12-26T11:39:30.881Z,29.97
2018-12-26T11:40:30.834Z,29.87
2018-12-26T11:41:30.788Z,29.97
2018-12-26T11:42:30.741Z,30.07
2018-12-26T11:43:30.694Z,29.77
2018-12-26T11:44:30.646Z,29.87
2018-12-26T11:45:30.601Z,29.97
2018-12-26T11:46:30.603Z,29.87
2018-12-26T11:47:30.507Z,30.16
2018-12-26T11:48:30.461Z,29.97
2018-12-26T11:49:30.414Z,29.97
2018-12-26T11:50:30.367Z,29.77
2018-12-26T11:51:30.320Z,29.87
2018-12-26T11:52:30.274Z,29.77
2018-12-26T11:53:30.226Z,29.87
2018-12-26T11:54:30.179Z,29.97
2018-12-26T11:55:30.132Z,30.16
2018-12-26T11:56:30.089Z,29.97
2018-12-26T11:57:30.040Z,29.97
2018-12-26T11:58:29.991Z,30.16
2018-12-26T11:59:29.946Z,30.07
2018-12-26T12:00:29.899Z,30.16
2018-12-26T12:01:29.853Z,29.97
2018-12-26T12:02:29.805Z,30.16
2018-12-26T12:03:29.764Z,29.87
2018-12-26T12:04:29.712Z,29.77
2018-12-26T12:05:29.665Z,29.97
2018-12-26T12:06:29.624Z,29.97
2018-12-26T12:07:29.572Z,29.87
2018-12-26T12:08:29.524Z,29.87
2018-12-26T12:09:29.478Z,30.26
2018-12-26T12:10:29.481Z,30.16
2018-12-26T12:11:29.385Z,29.87
2018-12-26T12:12:29.338Z,29.97
2018-12-26T12:13:29.292Z,29.97
2018-12-26T12:14:29.244Z,30.07
2018-12-26T12:15:29.198Z,30.16
2018-12-26T12:16:29.155Z,29.97
2018-12-26T12:17:29.105Z,30.07
2018-12-26T12:18:29.057Z,30.07
2018-12-26T12:19:29.011Z,30.07
2018-12-26T12:20:28.964Z,29.97
2018-12-26T12:21:28.917Z,30.07
2018-12-26T12:22:28.870Z,29.87
2018-12-26T12:23:28.824Z,30.16
2018-12-26T12:24:28.779Z,30.07
2018-12-26T12:25:28.731Z,30.26
2018-12-26T12:26:28.683Z,30.16
2018-12-26T12:27:28.637Z,29.97
2018-12-26T12:28:28.590Z,30.16
2018-12-26T12:29:35.783Z,29.97
2018-12-26T12:30:28.496Z,30.16
2018-12-26T12:31:28.450Z,29.97
2018-12-26T12:32:28.408Z,30.26
2018-12-26T12:33:28.362Z,29.77
2018-12-26T12:34:28.310Z,29.87
2018-12-26T12:35:28.263Z,29.77
2018-12-26T12:36:28.216Z,29.68
2018-12-26T12:37:28.170Z,29.68
2018-12-26T12:38:28.122Z,29.68
2018-12-26T12:39:28.076Z,29.68
2018-12-26T12:40:28.029Z,29.58
2018-12-26T12:41:27.983Z,29.68
2018-12-26T12:42:27.935Z,29.77
2018-12-26T12:43:27.889Z,29.77
2018-12-26T12:44:27.842Z,29.68
2018-12-26T12:45:27.796Z,29.77
2018-12-26T12:46:27.751Z,30.07
2018-12-26T12:47:27.704Z,30.07
2018-12-26T12:48:27.656Z,30.07
2018-12-26T12:49:27.610Z,30.16
2018-12-26T12:50:27.561Z,30.16
2018-12-26T12:51:27.515Z,30.16